KFFL/FFL METAR and TAF weather

Enter ICAO airport designator
Station Type Date Time Source
KFFL METAR 2019/10/21 23:55 UTC NOAA

KFFL 212355Z AUTO 21014G25KT 10SM BKN037 OVC043 11/06 A2951 RMK A01


Station Type Date Time Source
KFFL Decoded METAR 2019/10/21 23:55 UTC NOAA

Fair Field, IA, United States (KFFL) 41-03N 091-59W
Oct 21, 2019 - 07:55 PM EDT / 2019.10.21 2355 UTC
Wind: from the SSW (210 degrees) at 16 MPH (14 KT) gusting to 29 MPH (25 KT):0
Visibility: 10 mile(s):0
Sky conditions: overcast
Temperature: 51 F (11 C)
Dew Point: 42 F (6 C)
Relative Humidity: 71%
Pressure (altimeter): 29.51 in. Hg (999 hPa)
ob: KFFL 212355Z AUTO 21014G25KT 10SM BKN037 OVC043 11/06 A2951 RMK A01
cycle: 0

Station Type Date Time Source
KFFL TAF UTC NOAA

Error!

Example: see airport list